Time;durP1;ratioP1;P1;durP2;ratioP2;P2;SDS_P1;SDS_P2;PMS_P1;PMS_P2;Temp;Humidity;BMP_temperature;BMP_pressure;BME280_temperature;BME280_humidity;BME280_pressure;Samples;Min_cycle;Max_cycle;Signal;HPM_P1;HPM_P2
2022/09/03 00:01:30;;;;;;;;;;;20.90;43.10;;;;;;452803;261;2170;-51
2022/09/03 00:03:31;;;;;;;;;;;20.90;43.20;;;;;;452846;261;1302;-50
2022/09/03 00:05:33;;;;;;;;;;;20.90;43.20;;;;;;452817;261;1271;-51
2022/09/03 00:07:34;;;;;;;;;;;20.90;43.30;;;;;;452747;261;1905;-50
2022/09/03 00:09:35;;;;;;;;;;;20.90;43.30;;;;;;452460;261;1349;-50
2022/09/03 00:11:37;;;;;;;;;;;20.90;43.40;;;;;;452605;261;1269;-50
2022/09/03 00:13:37;;;;;;;;;;;20.90;43.40;;;;;;452855;261;2344;-50
2022/09/03 00:15:39;;;;;;;;;;;20.90;43.40;;;;;;452447;261;1369;-51
2022/09/03 00:17:40;;;;;;;;;;;20.90;43.50;;;;;;452830;261;1297;-51
2022/09/03 00:19:42;;;;;;;;;;;20.90;43.50;;;;;;452436;261;1193;-51
2022/09/03 00:21:43;;;;;;;;;;;20.90;43.50;;;;;;452835;259;2178;-50
2022/09/03 00:23:44;;;;;;;;;;;20.90;43.50;;;;;;452539;261;1276;-50
2022/09/03 00:25:45;;;;;;;;;;;20.90;43.60;;;;;;452448;261;1248;-51
2022/09/03 00:27:47;;;;;;;;;;;20.90;43.60;;;;;;452848;261;1210;-50
2022/09/03 00:29:48;;;;;;;;;;;20.90;43.60;;;;;;452865;261;1123;-51
2022/09/03 00:31:50;;;;;;;;;;;20.90;43.60;;;;;;452809;261;1222;-50
2022/09/03 00:33:51;;;;;;;;;;;20.90;43.70;;;;;;452559;261;2291;-50
2022/09/03 00:35:53;;;;;;;;;;;20.80;43.60;;;;;;452514;261;1228;-50
2022/09/03 00:37:54;;;;;;;;;;;20.90;43.70;;;;;;452832;261;1311;-50
2022/09/03 00:39:56;;;;;;;;;;;20.90;43.80;;;;;;452489;261;1319;-50
2022/09/03 00:41:58;;;;;;;;;;;20.80;43.80;;;;;;452375;261;2194;-50
2022/09/03 00:43:58;;;;;;;;;;;20.80;43.80;;;;;;452411;261;1839;-50
2022/09/03 00:46:01;;;;;;;;;;;20.80;43.80;;;;;;452571;261;1304;-50
2022/09/03 00:48:01;;;;;;;;;;;20.90;43.90;;;;;;452776;261;1932;-49
2022/09/03 00:50:03;;;;;;;;;;;20.90;43.90;;;;;;452399;261;1370;-51
2022/09/03 00:52:05;;;;;;;;;;;20.90;43.90;;;;;;452781;261;1381;-50
2022/09/03 00:54:06;;;;;;;;;;;20.90;43.90;;;;;;452802;261;1302;-50
2022/09/03 00:56:07;;;;;;;;;;;20.80;43.90;;;;;;452537;261;1323;-50
2022/09/03 00:58:09;;;;;;;;;;;20.90;44.00;;;;;;452390;261;1494;-51
2022/09/03 01:00:10;;;;;;;;;;;20.80;44.00;;;;;;452661;261;1330;-49
2022/09/03 01:02:11;;;;;;;;;;;20.80;44.00;;;;;;452408;261;2189;-50
2022/09/03 01:04:13;;;;;;;;;;;20.80;44.00;;;;;;452806;261;1229;-49
2022/09/03 01:06:14;;;;;;;;;;;20.80;44.10;;;;;;452454;261;1338;-51
2022/09/03 01:08:15;;;;;;;;;;;20.90;44.10;;;;;;452474;261;1290;-50
2022/09/03 01:10:17;;;;;;;;;;;20.90;44.10;;;;;;452458;261;1412;-50
2022/09/03 01:12:19;;;;;;;;;;;20.80;44.10;;;;;;452403;261;1284;-50
2022/09/03 01:14:19;;;;;;;;;;;20.80;44.20;;;;;;452817;261;1300;-51
2022/09/03 01:16:21;;;;;;;;;;;20.80;44.20;;;;;;452400;261;1302;-50
2022/09/03 01:18:22;;;;;;;;;;;20.80;44.20;;;;;;452527;261;1322;-50
2022/09/03 01:20:24;;;;;;;;;;;20.90;44.20;;;;;;452540;261;1280;-51
2022/09/03 01:22:25;;;;;;;;;;;20.80;44.20;;;;;;452703;261;2174;-50
2022/09/03 01:24:27;;;;;;;;;;;20.80;44.20;;;;;;452802;261;1273;-51
2022/09/03 01:26:27;;;;;;;;;;;20.80;44.30;;;;;;452629;261;2230;-50
2022/09/03 01:28:31;;;;;;;;;;;20.90;44.40;;;;;;452426;261;1286;-50
2022/09/03 01:30:31;;;;;;;;;;;20.90;44.30;;;;;;452829;261;2365;-50
2022/09/03 01:32:32;;;;;;;;;;;20.80;44.20;;;;;;452813;261;1239;-51
2022/09/03 01:34:33;;;;;;;;;;;20.90;44.30;;;;;;452495;261;1495;-50
2022/09/03 01:36:35;;;;;;;;;;;20.90;44.30;;;;;;452547;261;1250;-51
2022/09/03 01:38:36;;;;;;;;;;;20.90;44.40;;;;;;452679;261;1308;-50
2022/09/03 01:40:37;;;;;;;;;;;20.80;44.40;;;;;;452461;261;1223;-50
2022/09/03 01:42:39;;;;;;;;;;;20.80;44.40;;;;;;452437;261;2205;-49
2022/09/03 01:44:40;;;;;;;;;;;20.90;44.50;;;;;;452843;261;1244;-51
2022/09/03 01:46:44;;;;;;;;;;;20.80;44.40;;;;;;452816;261;1133;-50
2022/09/03 01:48:43;;;;;;;;;;;20.90;44.50;;;;;;452849;261;2149;-51
2022/09/03 01:50:44;;;;;;;;;;;20.80;44.50;;;;;;452616;261;1397;-50
2022/09/03 01:52:46;;;;;;;;;;;20.80;44.50;;;;;;452829;261;1345;-50
2022/09/03 01:54:49;;;;;;;;;;;20.80;44.50;;;;;;452417;261;2199;-50
2022/09/03 01:56:48;;;;;;;;;;;20.80;44.50;;;;;;452865;261;2499;-51
2022/09/03 01:58:50;;;;;;;;;;;20.90;44.60;;;;;;452476;261;1248;-50
2022/09/03 02:00:51;;;;;;;;;;;20.80;44.50;;;;;;452778;261;1892;-50
2022/09/03 02:02:52;;;;;;;;;;;20.80;44.60;;;;;;452833;261;2170;-50
2022/09/03 02:04:54;;;;;;;;;;;20.90;44.60;;;;;;452817;261;1265;-50
2022/09/03 02:06:56;;;;;;;;;;;20.80;44.60;;;;;;452641;261;1292;-51
2022/09/03 02:08:56;;;;;;;;;;;20.80;44.60;;;;;;452418;261;1675;-51
2022/09/03 02:11:00;;;;;;;;;;;20.90;44.60;;;;;;452691;261;1269;-50
2022/09/03 02:13:00;;;;;;;;;;;20.80;44.70;;;;;;452524;261;2372;-50
2022/09/03 02:15:02;;;;;;;;;;;20.80;44.70;;;;;;452821;261;1289;-50
2022/09/03 02:17:03;;;;;;;;;;;20.80;44.70;;;;;;452413;261;1297;-50
2022/09/03 02:19:04;;;;;;;;;;;20.80;44.70;;;;;;452803;261;1261;-50
2022/09/03 02:21:06;;;;;;;;;;;20.80;44.70;;;;;;452395;261;1325;-50
2022/09/03 02:23:07;;;;;;;;;;;20.80;44.70;;;;;;452424;261;2181;-50
2022/09/03 02:25:09;;;;;;;;;;;20.80;44.80;;;;;;452402;261;1280;-50
2022/09/03 02:27:10;;;;;;;;;;;20.80;44.80;;;;;;452390;261;2003;-50
2022/09/03 02:29:11;;;;;;;;;;;20.80;44.80;;;;;;452435;261;1277;-50
2022/09/03 02:31:13;;;;;;;;;;;20.80;44.80;;;;;;452828;261;1302;-50
2022/09/03 02:33:14;;;;;;;;;;;20.80;44.80;;;;;;452822;261;1264;-50
2022/09/03 02:35:15;;;;;;;;;;;20.80;44.80;;;;;;452810;261;1704;-51
2022/09/03 02:37:17;;;;;;;;;;;20.80;44.80;;;;;;452674;261;1487;-51
2022/09/03 02:39:18;;;;;;;;;;;20.80;44.90;;;;;;452797;261;1291;-50
2022/09/03 02:41:19;;;;;;;;;;;20.80;44.90;;;;;;452577;261;1242;-50
2022/09/03 02:43:20;;;;;;;;;;;20.80;44.90;;;;;;452636;261;2174;-51
2022/09/03 02:45:22;;;;;;;;;;;20.80;44.80;;;;;;452389;261;1369;-50
2022/09/03 02:47:23;;;;;;;;;;;20.80;44.80;;;;;;452504;261;1279;-49
2022/09/03 02:49:25;;;;;;;;;;;20.80;44.90;;;;;;452648;261;1314;-51
2022/09/03 02:51:26;;;;;;;;;;;20.80;44.90;;;;;;452791;261;1915;-50
2022/09/03 02:53:27;;;;;;;;;;;20.80;44.90;;;;;;452782;261;1328;-50
2022/09/03 02:55:29;;;;;;;;;;;20.80;44.90;;;;;;452518;261;1347;-50
2022/09/03 02:57:30;;;;;;;;;;;20.80;44.90;;;;;;452475;261;1299;-50
2022/09/03 02:59:31;;;;;;;;;;;20.80;44.90;;;;;;452477;261;1268;-50
2022/09/03 03:01:33;;;;;;;;;;;20.80;44.90;;;;;;452507;261;1289;-51
2022/09/03 03:03:34;;;;;;;;;;;20.80;44.90;;;;;;452426;261;2217;-50
2022/09/03 03:05:36;;;;;;;;;;;20.80;45.00;;;;;;452606;261;1219;-50
2022/09/03 03:07:37;;;;;;;;;;;20.80;45.00;;;;;;452435;261;1329;-50
2022/09/03 03:09:39;;;;;;;;;;;20.80;45.00;;;;;;452639;261;1266;-50
2022/09/03 03:11:40;;;;;;;;;;;20.80;45.10;;;;;;452637;261;1250;-51
2022/09/03 03:13:41;;;;;;;;;;;20.80;45.10;;;;;;452469;261;1334;-50
2022/09/03 03:15:43;;;;;;;;;;;20.80;45.00;;;;;;452553;261;1240;-51
2022/09/03 03:17:44;;;;;;;;;;;20.80;45.10;;;;;;452804;261;1364;-50
2022/09/03 03:19:45;;;;;;;;;;;20.80;45.00;;;;;;452809;261;1252;-50
2022/09/03 03:21:47;;;;;;;;;;;20.80;45.10;;;;;;452847;261;1213;-50
2022/09/03 03:23:48;;;;;;;;;;;20.80;45.10;;;;;;452554;261;2166;-51
2022/09/03 03:25:49;;;;;;;;;;;20.80;45.10;;;;;;452749;261;1321;-50
2022/09/03 03:27:51;;;;;;;;;;;20.80;45.10;;;;;;452844;261;1190;-50
2022/09/03 03:29:53;;;;;;;;;;;20.80;45.10;;;;;;452520;261;2213;-50
2022/09/03 03:31:53;;;;;;;;;;;20.90;45.20;;;;;;452775;259;2226;-50
2022/09/03 03:33:54;;;;;;;;;;;20.80;45.20;;;;;;452864;261;1124;-50
2022/09/03 03:35:56;;;;;;;;;;;20.80;45.20;;;;;;452847;261;1167;-50
2022/09/03 03:37:57;;;;;;;;;;;20.80;45.20;;;;;;452591;261;1308;-50
2022/09/03 03:39:58;;;;;;;;;;;20.90;45.20;;;;;;452804;261;1256;-50
2022/09/03 03:42:00;;;;;;;;;;;20.80;45.20;;;;;;452470;261;1185;-50
2022/09/03 03:44:01;;;;;;;;;;;20.80;45.20;;;;;;452695;261;2174;-50
2022/09/03 03:46:03;;;;;;;;;;;20.80;45.20;;;;;;452840;261;1243;-50
2022/09/03 03:48:04;;;;;;;;;;;20.80;45.20;;;;;;452605;261;2205;-50
2022/09/03 03:50:05;;;;;;;;;;;20.80;45.20;;;;;;452413;261;1251;-50
2022/09/03 03:52:06;;;;;;;;;;;20.80;45.30;;;;;;452448;261;1335;-49
2022/09/03 03:54:08;;;;;;;;;;;20.80;45.30;;;;;;452849;261;1206;-50
2022/09/03 03:56:09;;;;;;;;;;;20.80;45.30;;;;;;452452;261;1414;-50
2022/09/03 03:58:10;;;;;;;;;;;20.80;45.30;;;;;;452453;261;1269;-50
2022/09/03 04:00:12;;;;;;;;;;;20.80;45.30;;;;;;452413;261;1384;-50
2022/09/03 04:02:13;;;;;;;;;;;20.80;45.30;;;;;;452818;261;1399;-49
2022/09/03 04:04:14;;;;;;;;;;;20.80;45.30;;;;;;452837;261;2178;-50
2022/09/03 04:06:16;;;;;;;;;;;20.80;45.30;;;;;;452419;261;1325;-50
2022/09/03 04:08:17;;;;;;;;;;;20.80;45.30;;;;;;452789;261;1268;-50
2022/09/03 04:10:18;;;;;;;;;;;20.80;45.30;;;;;;452839;261;1326;-49
2022/09/03 04:12:20;;;;;;;;;;;20.80;45.30;;;;;;452451;261;1322;-50
2022/09/03 04:14:21;;;;;;;;;;;20.80;45.20;;;;;;452646;261;1319;-50
2022/09/03 04:16:23;;;;;;;;;;;20.80;45.10;;;;;;452791;261;1316;-50
2022/09/03 04:18:24;;;;;;;;;;;20.80;45.00;;;;;;452834;261;1324;-50
2022/09/03 04:20:25;;;;;;;;;;;20.80;44.90;;;;;;452675;261;1194;-50
2022/09/03 04:22:26;;;;;;;;;;;20.80;44.80;;;;;;452436;259;1525;-50
2022/09/03 04:24:28;;;;;;;;;;;20.80;44.80;;;;;;452738;261;2217;-51
2022/09/03 04:26:30;;;;;;;;;;;20.90;44.80;;;;;;452428;261;1515;-50
2022/09/03 04:28:31;;;;;;;;;;;20.90;44.70;;;;;;452454;261;1359;-50
2022/09/03 04:30:33;;;;;;;;;;;20.80;44.70;;;;;;452419;261;1286;-51
2022/09/03 04:32:52;;;;;;;;;;;20.90;44.60;;;;;;452652;261;1246;-49
2022/09/03 04:34:54;;;;;;;;;;;20.90;44.60;;;;;;452468;261;1261;-50
2022/09/03 04:36:56;;;;;;;;;;;20.90;44.60;;;;;;452601;261;1257;-51
2022/09/03 04:38:57;;;;;;;;;;;20.90;44.50;;;;;;452680;261;1307;-51
2022/09/03 04:40:59;;;;;;;;;;;20.80;44.50;;;;;;452445;261;1264;-50
2022/09/03 04:43:00;;;;;;;;;;;20.90;44.50;;;;;;452446;261;1339;-51
2022/09/03 04:45:02;;;;;;;;;;;20.90;44.40;;;;;;452655;261;2130;-50
2022/09/03 04:47:03;;;;;;;;;;;20.90;44.30;;;;;;452802;261;1301;-50
2022/09/03 04:49:06;;;;;;;;;;;20.90;44.20;;;;;;452418;261;1287;-51
2022/09/03 04:51:06;;;;;;;;;;;20.90;44.30;;;;;;452790;261;1615;-50
2022/09/03 04:53:07;;;;;;;;;;;20.90;44.20;;;;;;452549;261;1555;-50
2022/09/03 04:55:09;;;;;;;;;;;20.90;44.10;;;;;;452447;261;1368;-50
2022/09/03 04:57:10;;;;;;;;;;;20.90;44.10;;;;;;452802;261;1267;-50
2022/09/03 04:59:12;;;;;;;;;;;20.90;44.10;;;;;;452841;261;1474;-51
2022/09/03 05:01:13;;;;;;;;;;;20.90;44.00;;;;;;452464;259;1453;-50
2022/09/03 05:03:14;;;;;;;;;;;20.90;44.00;;;;;;452825;261;1367;-51
2022/09/03 05:05:16;;;;;;;;;;;20.90;43.90;;;;;;452796;261;2182;-51
2022/09/03 05:07:19;;;;;;;;;;;21.00;43.90;;;;;;452835;261;1215;-51
2022/09/03 05:09:18;;;;;;;;;;;20.90;43.80;;;;;;452867;261;2229;-50
2022/09/03 05:11:20;;;;;;;;;;;20.90;43.80;;;;;;452442;261;1319;-50
2022/09/03 05:13:21;;;;;;;;;;;21.00;43.80;;;;;;452840;261;1722;-50
2022/09/03 05:15:22;;;;;;;;;;;20.90;43.70;;;;;;452677;261;1292;-50
2022/09/03 05:17:24;;;;;;;;;;;20.90;43.70;;;;;;452826;261;1217;-50
2022/09/03 05:19:25;;;;;;;;;;;20.90;43.80;;;;;;452637;261;1242;-51
2022/09/03 05:21:27;;;;;;;;;;;20.90;43.70;;;;;;452793;261;1289;-51
2022/09/03 05:23:28;;;;;;;;;;;20.90;43.70;;;;;;452437;261;2198;-51
2022/09/03 05:25:30;;;;;;;;;;;20.90;43.60;;;;;;452839;261;2356;-50
2022/09/03 05:27:32;;;;;;;;;;;20.90;43.60;;;;;;452836;261;1278;-50
2022/09/03 05:29:33;;;;;;;;;;;20.90;43.50;;;;;;452657;261;1330;-50
2022/09/03 05:31:34;;;;;;;;;;;20.90;43.50;;;;;;452491;261;1306;-50
2022/09/03 05:33:36;;;;;;;;;;;20.90;43.50;;;;;;452728;261;1282;-50
2022/09/03 05:35:39;;;;;;;;;;;20.90;43.50;;;;;;452402;261;2338;-50
2022/09/03 05:37:38;;;;;;;;;;;20.90;43.50;;;;;;452834;261;2365;-51
2022/09/03 05:39:40;;;;;;;;;;;21.00;43.40;;;;;;452501;261;1354;-50
2022/09/03 05:41:41;;;;;;;;;;;21.00;43.40;;;;;;452555;261;1593;-50
2022/09/03 05:43:42;;;;;;;;;;;20.90;43.50;;;;;;452742;261;2204;-50
2022/09/03 05:45:44;;;;;;;;;;;20.90;43.50;;;;;;452385;261;1401;-50
2022/09/03 05:47:45;;;;;;;;;;;20.90;43.60;;;;;;452797;261;1309;-50
2022/09/03 05:49:46;;;;;;;;;;;20.90;43.60;;;;;;452593;261;1328;-51
2022/09/03 05:51:48;;;;;;;;;;;20.90;43.60;;;;;;452590;261;1323;-50
2022/09/03 05:53:49;;;;;;;;;;;20.90;43.50;;;;;;452527;261;1260;-51
2022/09/03 05:55:50;;;;;;;;;;;20.90;43.50;;;;;;452377;261;1219;-50
2022/09/03 05:57:52;;;;;;;;;;;20.90;43.50;;;;;;452413;261;1323;-50
2022/09/03 05:59:53;;;;;;;;;;;20.90;43.40;;;;;;452670;261;1330;-51
2022/09/03 06:01:54;;;;;;;;;;;20.90;43.40;;;;;;452511;261;1240;-50
2022/09/03 06:03:57;;;;;;;;;;;20.90;43.40;;;;;;452751;261;2170;-50
2022/09/03 06:05:57;;;;;;;;;;;20.90;43.40;;;;;;452400;261;2302;-51
2022/09/03 06:07:58;;;;;;;;;;;20.90;43.20;;;;;;452820;261;1276;-50
2022/09/03 06:10:00;;;;;;;;;;;20.90;43.20;;;;;;452425;261;1253;-51
2022/09/03 06:12:01;;;;;;;;;;;20.90;43.20;;;;;;452442;261;1363;-51
2022/09/03 06:14:03;;;;;;;;;;;20.90;43.20;;;;;;452832;261;1300;-51
2022/09/03 06:16:04;;;;;;;;;;;20.90;43.20;;;;;;452684;261;2420;-50
2022/09/03 06:18:05;;;;;;;;;;;20.90;43.20;;;;;;452811;261;1439;-51
2022/09/03 06:20:06;;;;;;;;;;;20.90;43.20;;;;;;452792;261;1313;-51
2022/09/03 06:22:08;;;;;;;;;;;20.90;43.10;;;;;;452786;261;1323;-50
2022/09/03 06:24:09;;;;;;;;;;;20.90;43.10;;;;;;452790;261;2209;-51
2022/09/03 06:26:11;;;;;;;;;;;20.90;43.10;;;;;;452774;261;1321;-50
2022/09/03 06:28:12;;;;;;;;;;;20.90;43.00;;;;;;452670;261;1314;-50
2022/09/03 06:30:14;;;;;;;;;;;20.90;43.10;;;;;;452794;261;1351;-50
2022/09/03 06:32:15;;;;;;;;;;;20.90;43.10;;;;;;452442;261;1420;-50
2022/09/03 06:34:17;;;;;;;;;;;20.90;43.00;;;;;;452375;261;2018;-50
2022/09/03 06:36:18;;;;;;;;;;;20.90;42.90;;;;;;452365;261;1485;-50
2022/09/03 06:38:20;;;;;;;;;;;20.90;43.00;;;;;;452386;261;1369;-50
2022/09/03 06:40:22;;;;;;;;;;;20.90;43.00;;;;;;452567;261;1410;-50
2022/09/03 06:42:23;;;;;;;;;;;20.90;43.00;;;;;;452378;261;2165;-50
2022/09/03 06:44:23;;;;;;;;;;;20.90;42.80;;;;;;452770;261;2278;-50
2022/09/03 06:46:25;;;;;;;;;;;20.90;42.90;;;;;;452405;261;1350;-50
2022/09/03 06:48:26;;;;;;;;;;;20.90;42.90;;;;;;452417;261;1283;-50
2022/09/03 06:50:27;;;;;;;;;;;20.90;42.90;;;;;;452715;261;1304;-50
2022/09/03 06:52:29;;;;;;;;;;;20.90;42.80;;;;;;452764;261;1390;-49
2022/09/03 06:54:30;;;;;;;;;;;20.90;42.80;;;;;;452405;261;1259;-50
2022/09/03 06:56:32;;;;;;;;;;;20.90;42.70;;;;;;452794;261;1303;-50
2022/09/03 06:58:34;;;;;;;;;;;20.90;42.80;;;;;;452414;261;1897;-50
2022/09/03 07:00:34;;;;;;;;;;;20.90;42.80;;;;;;452561;261;2329;-50
2022/09/03 07:02:36;;;;;;;;;;;20.90;42.70;;;;;;452417;261;1342;-50
2022/09/03 07:04:37;;;;;;;;;;;20.90;42.70;;;;;;452662;261;2217;-51
2022/09/03 07:06:39;;;;;;;;;;;21.00;42.80;;;;;;452572;261;1389;-50
2022/09/03 07:08:40;;;;;;;;;;;20.90;42.60;;;;;;452445;261;1294;-50
2022/09/03 07:10:42;;;;;;;;;;;20.90;42.70;;;;;;452419;261;1454;-51
2022/09/03 07:12:42;;;;;;;;;;;20.90;42.70;;;;;;452427;261;2467;-50
2022/09/03 07:14:44;;;;;;;;;;;20.90;42.80;;;;;;452844;261;1236;-51
2022/09/03 07:16:45;;;;;;;;;;;20.90;42.90;;;;;;452725;261;1263;-50
2022/09/03 07:18:46;;;;;;;;;;;20.90;43.00;;;;;;452503;261;1278;-50
2022/09/03 07:20:48;;;;;;;;;;;20.90;42.90;;;;;;452591;261;1272;-50
2022/09/03 07:22:49;;;;;;;;;;;20.90;42.80;;;;;;452826;261;1259;-50
2022/09/03 07:24:51;;;;;;;;;;;20.90;42.90;;;;;;452556;261;2193;-50
2022/09/03 07:26:52;;;;;;;;;;;20.90;42.80;;;;;;452822;261;1273;-50
2022/09/03 07:28:53;;;;;;;;;;;20.90;42.80;;;;;;452844;261;1740;-50
2022/09/03 07:30:55;;;;;;;;;;;20.90;42.70;;;;;;452599;261;1205;-49
2022/09/03 07:32:56;;;;;;;;;;;20.90;42.60;;;;;;452494;261;1332;-50
2022/09/03 07:34:57;;;;;;;;;;;20.90;42.70;;;;;;452816;261;1322;-51
2022/09/03 07:36:59;;;;;;;;;;;20.90;42.80;;;;;;452453;261;1292;-50
2022/09/03 07:39:00;;;;;;;;;;;20.90;42.70;;;;;;452836;261;2370;-50
2022/09/03 07:41:01;;;;;;;;;;;20.90;42.60;;;;;;452711;261;1256;-50
2022/09/03 07:43:03;;;;;;;;;;;20.90;42.70;;;;;;452807;261;1342;-51
2022/09/03 07:45:08;;;;;;;;;;;20.90;42.60;;;;;;452791;261;2201;-51
2022/09/03 07:47:06;;;;;;;;;;;20.90;42.60;;;;;;452640;261;2456;-51
2022/09/03 07:49:08;;;;;;;;;;;20.90;42.60;;;;;;452802;261;1348;-50
2022/09/03 07:51:08;;;;;;;;;;;20.90;42.50;;;;;;452545;261;2310;-50
2022/09/03 07:53:10;;;;;;;;;;;20.90;42.60;;;;;;452510;261;1302;-50
2022/09/03 07:55:11;;;;;;;;;;;20.90;42.60;;;;;;452405;261;1361;-51
2022/09/03 07:57:12;;;;;;;;;;;20.90;42.50;;;;;;452422;261;1328;-50
2022/09/03 07:59:14;;;;;;;;;;;20.90;42.50;;;;;;452691;261;1348;-50
2022/09/03 08:01:15;;;;;;;;;;;20.90;42.50;;;;;;452803;261;1289;-50
2022/09/03 08:03:17;;;;;;;;;;;20.90;42.40;;;;;;452556;261;1311;-50
2022/09/03 08:05:19;;;;;;;;;;;20.90;42.40;;;;;;452414;261;2170;-50
2022/09/03 08:07:19;;;;;;;;;;;20.90;42.40;;;;;;452444;261;2216;-50
2022/09/03 08:09:21;;;;;;;;;;;20.90;42.40;;;;;;452432;261;1477;-50
2022/09/03 08:11:22;;;;;;;;;;;20.90;42.40;;;;;;452435;261;1309;-50
2022/09/03 08:13:24;;;;;;;;;;;20.90;42.40;;;;;;452833;261;1285;-51
2022/09/03 08:15:25;;;;;;;;;;;20.90;42.30;;;;;;452488;261;1323;-50
2022/09/03 08:17:26;;;;;;;;;;;20.90;42.30;;;;;;452795;261;1294;-50
2022/09/03 08:19:27;;;;;;;;;;;20.90;42.40;;;;;;452602;261;1302;-50
2022/09/03 08:21:29;;;;;;;;;;;21.00;42.30;;;;;;452442;261;1321;-50
2022/09/03 08:23:30;;;;;;;;;;;20.90;42.30;;;;;;452803;261;1389;-50
2022/09/03 08:25:32;;;;;;;;;;;21.00;42.30;;;;;;452374;261;2213;-50
2022/09/03 08:27:34;;;;;;;;;;;20.90;42.20;;;;;;452391;261;1741;-50
2022/09/03 08:29:34;;;;;;;;;;;20.90;42.20;;;;;;452658;261;1484;-51
2022/09/03 08:31:35;;;;;;;;;;;20.90;42.20;;;;;;452548;261;1307;-50
2022/09/03 14:22:12;;;;;;;;;;;20.70;45.20;;;;;;446113;263;2597;-50
2022/09/03 14:24:13;;;;;;;;;;;20.70;45.20;;;;;;446954;265;1338;-50
2022/09/03 14:26:15;;;;;;;;;;;20.70;45.20;;;;;;447357;264;2248;-50
2022/09/03 14:28:16;;;;;;;;;;;20.70;45.20;;;;;;447215;264;1262;-51
2022/09/03 14:30:17;;;;;;;;;;;20.70;45.20;;;;;;447024;265;1632;-49
2022/09/03 14:32:19;;;;;;;;;;;20.70;45.20;;;;;;447047;265;1302;-50
2022/09/03 14:34:20;;;;;;;;;;;20.70;45.30;;;;;;447424;264;1350;-50
2022/09/03 14:36:22;;;;;;;;;;;20.70;45.30;;;;;;446978;265;1346;-50
2022/09/03 14:38:23;;;;;;;;;;;20.70;45.30;;;;;;447326;264;1309;-50
2022/09/03 14:40:24;;;;;;;;;;;20.70;45.30;;;;;;447354;264;1382;-50
2022/09/03 14:42:26;;;;;;;;;;;20.70;45.30;;;;;;447393;264;1307;-50
2022/09/03 14:44:27;;;;;;;;;;;20.70;45.40;;;;;;447382;264;1384;-51
2022/09/03 14:46:28;;;;;;;;;;;20.70;45.30;;;;;;447378;264;2176;-50
2022/09/03 14:48:29;;;;;;;;;;;20.70;45.30;;;;;;447020;265;1361;-50
2022/09/03 14:50:31;;;;;;;;;;;20.70;45.30;;;;;;447339;264;1345;-50
2022/09/03 14:52:32;;;;;;;;;;;20.70;45.30;;;;;;447373;264;1256;-50
2022/09/03 14:54:34;;;;;;;;;;;20.70;45.30;;;;;;447047;264;1273;-50
2022/09/03 14:56:36;;;;;;;;;;;20.80;45.40;;;;;;447108;264;1322;-51
2022/09/03 14:58:36;;;;;;;;;;;20.80;45.40;;;;;;447027;265;1637;-51
2022/09/03 15:00:37;;;;;;;;;;;20.70;45.40;;;;;;447184;264;1339;-50
2022/09/03 15:02:39;;;;;;;;;;;20.70;45.40;;;;;;447094;264;1355;-50
2022/09/03 15:04:40;;;;;;;;;;;20.70;45.40;;;;;;447339;264;1236;-50
2022/09/03 15:06:42;;;;;;;;;;;20.70;45.30;;;;;;447174;264;2197;-50
2022/09/03 15:08:44;;;;;;;;;;;20.70;45.20;;;;;;447408;264;1374;-51
2022/09/03 15:10:45;;;;;;;;;;;20.70;45.10;;;;;;447402;264;1933;-50
2022/09/03 15:12:45;;;;;;;;;;;20.70;45.00;;;;;;447365;264;1765;-51
2022/09/03 15:14:47;;;;;;;;;;;20.70;45.00;;;;;;447192;264;1281;-50
2022/09/03 15:16:48;;;;;;;;;;;20.70;44.90;;;;;;447020;265;1347;-50
2022/09/03 15:18:49;;;;;;;;;;;20.70;44.80;;;;;;447045;265;1319;-50
2022/09/03 15:20:51;;;;;;;;;;;20.70;44.70;;;;;;447395;264;1222;-50
2022/09/03 15:22:52;;;;;;;;;;;20.80;44.70;;;;;;447415;264;1315;-51
2022/09/03 15:24:53;;;;;;;;;;;20.70;44.60;;;;;;447101;264;1275;-51
2022/09/03 15:26:55;;;;;;;;;;;20.80;44.50;;;;;;447322;264;2204;-51
2022/09/03 15:28:56;;;;;;;;;;;20.80;44.60;;;;;;447129;264;1300;-50
2022/09/03 15:30:57;;;;;;;;;;;20.80;44.60;;;;;;447226;263;1290;-50
2022/09/03 15:32:59;;;;;;;;;;;20.80;44.40;;;;;;447469;264;1435;-50
2022/09/03 15:35:00;;;;;;;;;;;20.80;44.40;;;;;;447440;264;1267;-51
2022/09/03 15:37:03;;;;;;;;;;;20.70;44.40;;;;;;447238;264;1287;-50
2022/09/03 15:39:03;;;;;;;;;;;20.70;44.30;;;;;;447286;264;2390;-50
2022/09/03 15:41:06;;;;;;;;;;;20.80;44.30;;;;;;447123;264;1241;-50
2022/09/03 15:43:05;;;;;;;;;;;20.80;44.30;;;;;;447356;264;1481;-51
2022/09/03 15:45:07;;;;;;;;;;;20.80;44.30;;;;;;447438;264;1415;-50
2022/09/03 15:47:08;;;;;;;;;;;20.80;44.30;;;;;;447408;264;2220;-50
2022/09/03 15:49:11;;;;;;;;;;;20.80;44.20;;;;;;447068;265;1302;-50
2022/09/03 15:51:12;;;;;;;;;;;20.80;44.20;;;;;;447036;265;1441;-50
2022/09/03 15:53:12;;;;;;;;;;;20.80;44.10;;;;;;447298;264;2331;-50
2022/09/03 15:55:13;;;;;;;;;;;20.80;44.10;;;;;;447028;265;1391;-49
2022/09/03 15:57:15;;;;;;;;;;;20.80;44.10;;;;;;447290;264;1296;-50
2022/09/03 15:59:16;;;;;;;;;;;20.80;44.10;;;;;;447058;264;1303;-51
2022/09/03 16:01:17;;;;;;;;;;;20.80;44.10;;;;;;447307;264;1346;-50
2022/09/03 16:03:20;;;;;;;;;;;20.80;44.00;;;;;;447445;264;1270;-50
2022/09/03 16:05:20;;;;;;;;;;;20.80;44.00;;;;;;447284;264;1520;-50
2022/09/03 16:07:22;;;;;;;;;;;20.80;43.90;;;;;;447214;264;2180;-51
2022/09/03 16:09:23;;;;;;;;;;;20.80;43.90;;;;;;447058;265;1301;-50
2022/09/03 16:11:24;;;;;;;;;;;20.80;43.90;;;;;;447195;264;1305;-51
2022/09/03 16:13:25;;;;;;;;;;;20.80;43.80;;;;;;447358;264;1322;-50
2022/09/03 16:15:27;;;;;;;;;;;20.80;43.80;;;;;;447436;264;1299;-50
2022/09/03 16:17:28;;;;;;;;;;;20.80;43.80;;;;;;447073;264;1262;-50
2022/09/03 16:19:30;;;;;;;;;;;20.80;43.80;;;;;;447283;264;1362;-50
2022/09/03 16:21:31;;;;;;;;;;;20.80;43.70;;;;;;447423;264;1348;-50
2022/09/03 16:23:32;;;;;;;;;;;20.80;43.70;;;;;;447060;263;1328;-50
2022/09/03 16:25:37;;;;;;;;;;;20.80;43.60;;;;;;447352;264;1299;-50
2022/09/03 16:27:36;;;;;;;;;;;20.80;43.60;;;;;;447075;263;2213;-50
2022/09/03 16:29:37;;;;;;;;;;;20.80;43.60;;;;;;447083;265;1243;-51
2022/09/03 16:31:39;;;;;;;;;;;20.80;43.60;;;;;;447146;264;1183;-51
2022/09/03 16:33:40;;;;;;;;;;;20.80;43.50;;;;;;447075;265;1220;-49
2022/09/03 16:35:42;;;;;;;;;;;20.80;43.50;;;;;;447067;265;1237;-51
2022/09/03 16:37:43;;;;;;;;;;;20.80;43.50;;;;;;447074;264;1305;-51
2022/09/03 16:39:44;;;;;;;;;;;20.80;43.60;;;;;;447138;264;1262;-50
2022/09/03 16:41:45;;;;;;;;;;;20.80;43.70;;;;;;447417;264;1223;-50
2022/09/03 16:43:47;;;;;;;;;;;20.80;43.70;;;;;;447058;265;1496;-50
2022/09/03 16:45:48;;;;;;;;;;;20.80;43.60;;;;;;447364;264;1291;-49
2022/09/03 16:47:50;;;;;;;;;;;20.80;43.60;;;;;;447280;264;2212;-50
2022/09/03 16:49:51;;;;;;;;;;;20.80;43.60;;;;;;447366;264;1445;-51
2022/09/03 16:51:52;;;;;;;;;;;20.80;43.50;;;;;;446946;265;1312;-50
2022/09/03 16:54:02;;;;;;;;;;;20.80;43.50;;;;;;447023;265;1381;-50
2022/09/03 16:56:01;;;;;;;;;;;20.80;43.50;;;;;;447340;264;1448;-51
2022/09/03 16:58:06;;;;;;;;;;;20.80;43.40;;;;;;447066;265;1299;-51
2022/09/03 17:00:06;;;;;;;;;;;20.80;43.50;;;;;;447445;264;2255;-50
2022/09/03 17:02:06;;;;;;;;;;;20.80;43.50;;;;;;447073;265;2383;-50
2022/09/03 17:04:07;;;;;;;;;;;20.80;43.40;;;;;;447470;264;1130;-50
2022/09/03 17:06:08;;;;;;;;;;;20.80;43.30;;;;;;447135;264;1185;-50
2022/09/03 17:08:10;;;;;;;;;;;20.80;43.30;;;;;;447257;264;2227;-51
2022/09/03 17:10:11;;;;;;;;;;;20.80;43.40;;;;;;447067;265;1314;-51
2022/09/03 17:12:12;;;;;;;;;;;20.80;43.30;;;;;;447432;264;1275;-50
2022/09/03 17:14:14;;;;;;;;;;;20.80;43.30;;;;;;447435;263;1455;-50
2022/09/03 17:16:15;;;;;;;;;;;20.80;43.20;;;;;;447441;264;1392;-51
2022/09/03 17:18:17;;;;;;;;;;;20.80;43.20;;;;;;447420;264;1469;-50
2022/09/03 17:20:18;;;;;;;;;;;20.80;43.10;;;;;;447355;264;1219;-50
2022/09/03 17:22:20;;;;;;;;;;;20.80;43.20;;;;;;447194;264;1247;-51
2022/09/03 17:24:21;;;;;;;;;;;20.80;43.10;;;;;;447013;265;2307;-51
2022/09/03 17:26:22;;;;;;;;;;;20.80;43.10;;;;;;447115;264;1408;-50
2022/09/03 17:28:23;;;;;;;;;;;20.80;43.10;;;;;;447292;264;2225;-51
2022/09/03 17:30:25;;;;;;;;;;;20.80;43.10;;;;;;447386;264;1311;-50
2022/09/03 17:32:26;;;;;;;;;;;20.80;43.00;;;;;;447470;264;1306;-50
2022/09/03 17:34:28;;;;;;;;;;;20.90;43.00;;;;;;447457;264;1262;-51
2022/09/03 17:36:30;;;;;;;;;;;20.90;43.10;;;;;;447256;264;1318;-51
2022/09/03 17:38:30;;;;;;;;;;;20.90;43.00;;;;;;447276;264;1956;-50
2022/09/03 17:40:32;;;;;;;;;;;20.90;43.00;;;;;;447114;264;1242;-51
2022/09/03 17:42:33;;;;;;;;;;;20.90;43.00;;;;;;447119;264;1291;-49
2022/09/03 17:44:34;;;;;;;;;;;20.80;42.90;;;;;;447058;265;1295;-50
2022/09/03 17:46:36;;;;;;;;;;;20.90;42.90;;;;;;447181;264;1148;-50